sensor_id;sensor_type;location;lat;lon;timestamp;P1;durP1;ratioP1;P2;durP2;ratioP2
20966;SDS011;10642;50.682;18.510;2023-02-15T00:01:09;20.10;;;11.97;;
20966;SDS011;10642;50.682;18.510;2023-02-15T00:03:36;19.33;;;11.30;;
20966;SDS011;10642;50.682;18.510;2023-02-15T00:06:04;18.30;;;10.00;;
20966;SDS011;10642;50.682;18.510;2023-02-15T00:08:31;17.70;;;10.53;;
20966;SDS011;10642;50.682;18.510;2023-02-15T00:11:08;17.03;;;10.57;;
20966;SDS011;10642;50.682;18.510;2023-02-15T00:13:35;19.10;;;10.57;;
20966;SDS011;10642;50.682;18.510;2023-02-15T00:16:03;16.77;;;10.37;;
20966;SDS011;10642;50.682;18.510;2023-02-15T00:18:30;18.17;;;9.83;;
20966;SDS011;10642;50.682;18.510;2023-02-15T00:20:57;13.97;;;9.67;;
20966;SDS011;10642;50.682;18.510;2023-02-15T00:23:26;17.67;;;9.53;;
20966;SDS011;10642;50.682;18.510;2023-02-15T00:26:02;14.37;;;9.23;;
20966;SDS011;10642;50.682;18.510;2023-02-15T00:28:29;17.63;;;9.50;;
20966;SDS011;10642;50.682;18.510;2023-02-15T00:31:08;15.63;;;10.20;;
20966;SDS011;10642;50.682;18.510;2023-02-15T00:33:36;21.30;;;10.97;;
20966;SDS011;10642;50.682;18.510;2023-02-15T00:36:04;16.43;;;10.23;;
20966;SDS011;10642;50.682;18.510;2023-02-15T00:38:31;14.77;;;10.03;;
20966;SDS011;10642;50.682;18.510;2023-02-15T00:41:00;16.40;;;10.60;;
20966;SDS011;10642;50.682;18.510;2023-02-15T00:43:28;16.20;;;10.70;;
20966;SDS011;10642;50.682;18.510;2023-02-15T00:45:55;16.47;;;9.83;;
20966;SDS011;10642;50.682;18.510;2023-02-15T00:48:22;15.03;;;10.10;;
20966;SDS011;10642;50.682;18.510;2023-02-15T00:50:50;16.27;;;10.33;;
20966;SDS011;10642;50.682;18.510;2023-02-15T00:53:18;15.40;;;9.87;;
20966;SDS011;10642;50.682;18.510;2023-02-15T00:55:45;14.23;;;8.33;;
20966;SDS011;10642;50.682;18.510;2023-02-15T00:58:13;17.17;;;10.63;;
20966;SDS011;10642;50.682;18.510;2023-02-15T01:00:40;16.80;;;10.10;;
20966;SDS011;10642;50.682;18.510;2023-02-15T01:03:07;17.83;;;9.67;;
20966;SDS011;10642;50.682;18.510;2023-02-15T01:05:35;16.83;;;9.20;;
20966;SDS011;10642;50.682;18.510;2023-02-15T01:08:03;17.23;;;10.50;;
20966;SDS011;10642;50.682;18.510;2023-02-15T01:10:30;18.03;;;9.83;;
20966;SDS011;10642;50.682;18.510;2023-02-15T01:12:57;15.63;;;9.87;;
20966;SDS011;10642;50.682;18.510;2023-02-15T01:15:25;18.30;;;10.93;;
20966;SDS011;10642;50.682;18.510;2023-02-15T01:17:52;19.27;;;9.47;;
20966;SDS011;10642;50.682;18.510;2023-02-15T01:20:21;17.60;;;9.93;;
20966;SDS011;10642;50.682;18.510;2023-02-15T01:22:48;16.03;;;9.17;;
20966;SDS011;10642;50.682;18.510;2023-02-15T01:25:17;17.90;;;10.10;;
20966;SDS011;10642;50.682;18.510;2023-02-15T01:27:44;16.77;;;9.83;;
20966;SDS011;10642;50.682;18.510;2023-02-15T01:30:12;16.73;;;10.10;;
20966;SDS011;10642;50.682;18.510;2023-02-15T01:32:39;14.63;;;8.90;;
20966;SDS011;10642;50.682;18.510;2023-02-15T01:35:07;15.23;;;8.73;;
20966;SDS011;10642;50.682;18.510;2023-02-15T01:37:34;14.87;;;9.00;;
20966;SDS011;10642;50.682;18.510;2023-02-15T01:40:05;16.70;;;9.30;;
20966;SDS011;10642;50.682;18.510;2023-02-15T01:42:33;17.90;;;9.63;;
20966;SDS011;10642;50.682;18.510;2023-02-15T01:45:04;16.33;;;9.40;;
20966;SDS011;10642;50.682;18.510;2023-02-15T01:47:41;14.73;;;9.00;;
20966;SDS011;10642;50.682;18.510;2023-02-15T01:50:13;14.03;;;8.50;;
20966;SDS011;10642;50.682;18.510;2023-02-15T01:52:46;14.17;;;8.63;;
20966;SDS011;10642;50.682;18.510;2023-02-15T01:55:16;19.40;;;10.10;;
20966;SDS011;10642;50.682;18.510;2023-02-15T01:57:43;14.17;;;9.03;;
20966;SDS011;10642;50.682;18.510;2023-02-15T02:00:10;16.00;;;9.37;;
20966;SDS011;10642;50.682;18.510;2023-02-15T02:02:40;13.57;;;8.97;;
20966;SDS011;10642;50.682;18.510;2023-02-15T02:05:08;14.07;;;9.07;;
20966;SDS011;10642;50.682;18.510;2023-02-15T02:07:39;13.03;;;9.20;;
20966;SDS011;10642;50.682;18.510;2023-02-15T02:10:08;14.53;;;9.70;;
20966;SDS011;10642;50.682;18.510;2023-02-15T02:12:35;13.87;;;9.10;;
20966;SDS011;10642;50.682;18.510;2023-02-15T02:15:03;13.00;;;8.83;;
20966;SDS011;10642;50.682;18.510;2023-02-15T02:33:25;13.00;;;8.77;;
20966;SDS011;10642;50.682;18.510;2023-02-15T02:35:56;14.33;;;8.77;;
20966;SDS011;10642;50.682;18.510;2023-02-15T02:39:13;13.53;;;8.13;;
20966;SDS011;10642;50.682;18.510;2023-02-15T02:41:23;14.63;;;8.77;;
20966;SDS011;10642;50.682;18.510;2023-02-15T02:43:52;16.60;;;9.30;;
20966;SDS011;10642;50.682;18.510;2023-02-15T02:46:26;18.33;;;10.87;;
20966;SDS011;10642;50.682;18.510;2023-02-15T02:48:55;16.80;;;9.80;;
20966;SDS011;10642;50.682;18.510;2023-02-15T02:51:22;17.73;;;10.20;;
20966;SDS011;10642;50.682;18.510;2023-02-15T02:53:50;16.83;;;9.87;;
20966;SDS011;10642;50.682;18.510;2023-02-15T02:56:23;15.33;;;8.50;;
20966;SDS011;10642;50.682;18.510;2023-02-15T02:58:53;17.27;;;9.63;;
20966;SDS011;10642;50.682;18.510;2023-02-15T03:01:24;12.40;;;8.73;;
20966;SDS011;10642;50.682;18.510;2023-02-15T03:03:58;14.57;;;9.13;;
20966;SDS011;10642;50.682;18.510;2023-02-15T03:09:09;13.23;;;8.77;;
20966;SDS011;10642;50.682;18.510;2023-02-15T03:11:44;16.63;;;9.80;;
20966;SDS011;10642;50.682;18.510;2023-02-15T03:14:13;13.03;;;8.53;;
20966;SDS011;10642;50.682;18.510;2023-02-15T03:16:41;13.77;;;9.43;;
20966;SDS011;10642;50.682;18.510;2023-02-15T03:19:13;13.90;;;9.93;;
20966;SDS011;10642;50.682;18.510;2023-02-15T03:21:49;15.87;;;9.37;;
20966;SDS011;10642;50.682;18.510;2023-02-15T03:24:28;14.10;;;8.50;;
20966;SDS011;10642;50.682;18.510;2023-02-15T03:26:56;17.33;;;10.03;;
20966;SDS011;10642;50.682;18.510;2023-02-15T03:29:24;16.30;;;9.97;;
20966;SDS011;10642;50.682;18.510;2023-02-15T03:31:56;18.77;;;9.27;;
20966;SDS011;10642;50.682;18.510;2023-02-15T03:34:24;14.73;;;9.60;;
20966;SDS011;10642;50.682;18.510;2023-02-15T03:37:00;17.63;;;10.40;;
20966;SDS011;10642;50.682;18.510;2023-02-15T03:39:36;18.27;;;10.43;;
20966;SDS011;10642;50.682;18.510;2023-02-15T03:42:08;15.87;;;10.30;;
20966;SDS011;10642;50.682;18.510;2023-02-15T03:44:41;18.97;;;10.03;;
20966;SDS011;10642;50.682;18.510;2023-02-15T03:47:15;18.27;;;10.50;;
20966;SDS011;10642;50.682;18.510;2023-02-15T03:49:44;20.13;;;11.30;;
20966;SDS011;10642;50.682;18.510;2023-02-15T03:52:13;16.13;;;11.10;;
20966;SDS011;10642;50.682;18.510;2023-02-15T03:54:41;18.43;;;10.27;;
20966;SDS011;10642;50.682;18.510;2023-02-15T03:57:14;20.17;;;11.03;;
20966;SDS011;10642;50.682;18.510;2023-02-15T04:00:00;16.73;;;10.80;;
20966;SDS011;10642;50.682;18.510;2023-02-15T04:05:17;22.70;;;11.60;;
20966;SDS011;10642;50.682;18.510;2023-02-15T04:07:43;24.40;;;12.00;;
20966;SDS011;10642;50.682;18.510;2023-02-15T04:10:10;25.73;;;13.40;;
20966;SDS011;10642;50.682;18.510;2023-02-15T04:12:56;23.27;;;14.57;;
20966;SDS011;10642;50.682;18.510;2023-02-15T04:15:23;28.20;;;15.07;;
20966;SDS011;10642;50.682;18.510;2023-02-15T04:18:08;26.10;;;15.67;;
20966;SDS011;10642;50.682;18.510;2023-02-15T04:20:35;31.30;;;18.53;;
20966;SDS011;10642;50.682;18.510;2023-02-15T04:23:21;29.30;;;18.17;;
20966;SDS011;10642;50.682;18.510;2023-02-15T04:26:06;29.13;;;17.03;;
20966;SDS011;10642;50.682;18.510;2023-02-15T04:28:33;26.30;;;15.67;;
20966;SDS011;10642;50.682;18.510;2023-02-15T04:31:00;28.93;;;17.20;;
20966;SDS011;10642;50.682;18.510;2023-02-15T04:33:27;32.63;;;18.90;;
20966;SDS011;10642;50.682;18.510;2023-02-15T04:35:54;29.90;;;17.70;;
20966;SDS011;10642;50.682;18.510;2023-02-15T04:38:21;37.87;;;20.47;;
20966;SDS011;10642;50.682;18.510;2023-02-15T04:40:49;75.27;;;39.60;;
20966;SDS011;10642;50.682;18.510;2023-02-15T04:43:18;294.03;;;132.40;;
20966;SDS011;10642;50.682;18.510;2023-02-15T04:45:48;143.20;;;77.23;;
20966;SDS011;10642;50.682;18.510;2023-02-15T04:48:16;66.67;;;36.03;;
20966;SDS011;10642;50.682;18.510;2023-02-15T04:50:43;73.07;;;44.47;;
20966;SDS011;10642;50.682;18.510;2023-02-15T04:53:10;142.87;;;99.73;;
20966;SDS011;10642;50.682;18.510;2023-02-15T04:55:37;88.33;;;56.57;;
20966;SDS011;10642;50.682;18.510;2023-02-15T04:58:04;96.87;;;54.07;;
20966;SDS011;10642;50.682;18.510;2023-02-15T05:00:31;146.83;;;70.60;;
20966;SDS011;10642;50.682;18.510;2023-02-15T05:02:58;118.50;;;45.67;;
20966;SDS011;10642;50.682;18.510;2023-02-15T05:05:25;61.70;;;23.13;;
20966;SDS011;10642;50.682;18.510;2023-02-15T05:07:52;65.37;;;22.93;;
20966;SDS011;10642;50.682;18.510;2023-02-15T05:10:19;177.43;;;71.47;;
20966;SDS011;10642;50.682;18.510;2023-02-15T05:12:46;210.17;;;103.93;;
20966;SDS011;10642;50.682;18.510;2023-02-15T05:15:13;316.80;;;140.97;;
20966;SDS011;10642;50.682;18.510;2023-02-15T05:17:40;190.77;;;48.43;;
20966;SDS011;10642;50.682;18.510;2023-02-15T05:20:07;125.43;;;34.63;;
20966;SDS011;10642;50.682;18.510;2023-02-15T05:22:34;62.17;;;23.90;;
20966;SDS011;10642;50.682;18.510;2023-02-15T05:25:01;36.73;;;20.30;;
20966;SDS011;10642;50.682;18.510;2023-02-15T05:27:46;36.80;;;21.00;;
20966;SDS011;10642;50.682;18.510;2023-02-15T05:30:32;32.67;;;17.80;;
20966;SDS011;10642;50.682;18.510;2023-02-15T05:32:59;34.43;;;19.03;;
20966;SDS011;10642;50.682;18.510;2023-02-15T05:35:26;35.23;;;19.83;;
20966;SDS011;10642;50.682;18.510;2023-02-15T05:37:53;34.80;;;18.30;;
20966;SDS011;10642;50.682;18.510;2023-02-15T05:40:19;36.57;;;17.57;;
20966;SDS011;10642;50.682;18.510;2023-02-15T05:42:46;33.50;;;18.40;;
20966;SDS011;10642;50.682;18.510;2023-02-15T05:45:13;46.97;;;23.37;;
20966;SDS011;10642;50.682;18.510;2023-02-15T05:47:40;35.23;;;18.90;;
20966;SDS011;10642;50.682;18.510;2023-02-15T05:50:07;36.77;;;18.53;;
20966;SDS011;10642;50.682;18.510;2023-02-15T05:52:34;39.47;;;20.10;;
20966;SDS011;10642;50.682;18.510;2023-02-15T05:55:01;37.20;;;17.50;;
20966;SDS011;10642;50.682;18.510;2023-02-15T05:57:29;36.47;;;20.07;;
20966;SDS011;10642;50.682;18.510;2023-02-15T05:59:56;35.37;;;19.33;;
20966;SDS011;10642;50.682;18.510;2023-02-15T06:02:22;35.27;;;19.33;;
20966;SDS011;10642;50.682;18.510;2023-02-15T06:04:49;33.97;;;19.00;;
20966;SDS011;10642;50.682;18.510;2023-02-15T06:07:16;41.87;;;20.20;;
20966;SDS011;10642;50.682;18.510;2023-02-15T06:09:43;42.23;;;19.93;;
20966;SDS011;10642;50.682;18.510;2023-02-15T06:12:10;40.40;;;20.80;;
20966;SDS011;10642;50.682;18.510;2023-02-15T06:14:37;80.23;;;27.03;;
20966;SDS011;10642;50.682;18.510;2023-02-15T06:17:04;52.83;;;23.40;;
20966;SDS011;10642;50.682;18.510;2023-02-15T06:19:31;51.73;;;22.93;;
20966;SDS011;10642;50.682;18.510;2023-02-15T06:21:57;57.10;;;23.40;;
20966;SDS011;10642;50.682;18.510;2023-02-15T06:24:24;48.00;;;21.80;;
20966;SDS011;10642;50.682;18.510;2023-02-15T06:26:51;50.30;;;23.77;;
20966;SDS011;10642;50.682;18.510;2023-02-15T06:29:18;55.73;;;26.00;;
20966;SDS011;10642;50.682;18.510;2023-02-15T06:31:45;50.37;;;22.77;;
20966;SDS011;10642;50.682;18.510;2023-02-15T06:34:12;60.17;;;24.43;;
20966;SDS011;10642;50.682;18.510;2023-02-15T06:36:39;51.50;;;23.30;;
20966;SDS011;10642;50.682;18.510;2023-02-15T06:39:06;52.97;;;25.23;;
20966;SDS011;10642;50.682;18.510;2023-02-15T06:41:33;57.20;;;25.50;;
20966;SDS011;10642;50.682;18.510;2023-02-15T06:44:00;61.63;;;26.63;;
20966;SDS011;10642;50.682;18.510;2023-02-15T06:46:26;60.50;;;28.17;;
20966;SDS011;10642;50.682;18.510;2023-02-15T06:48:54;66.80;;;26.43;;
20966;SDS011;10642;50.682;18.510;2023-02-15T06:51:20;57.47;;;26.40;;
20966;SDS011;10642;50.682;18.510;2023-02-15T06:53:47;66.20;;;28.40;;
20966;SDS011;10642;50.682;18.510;2023-02-15T06:56:14;65.87;;;27.00;;
20966;SDS011;10642;50.682;18.510;2023-02-15T06:58:41;53.13;;;25.40;;
20966;SDS011;10642;50.682;18.510;2023-02-15T07:01:08;62.60;;;26.43;;
20966;SDS011;10642;50.682;18.510;2023-02-15T07:03:36;66.63;;;28.23;;
20966;SDS011;10642;50.682;18.510;2023-02-15T07:06:03;69.00;;;30.00;;
20966;SDS011;10642;50.682;18.510;2023-02-15T07:08:32;77.73;;;36.27;;
20966;SDS011;10642;50.682;18.510;2023-02-15T07:10:59;61.50;;;28.80;;
20966;SDS011;10642;50.682;18.510;2023-02-15T07:13:46;60.40;;;28.60;;
20966;SDS011;10642;50.682;18.510;2023-02-15T07:16:13;63.27;;;28.33;;
20966;SDS011;10642;50.682;18.510;2023-02-15T07:18:40;63.33;;;26.83;;
20966;SDS011;10642;50.682;18.510;2023-02-15T07:21:07;55.13;;;25.27;;
20966;SDS011;10642;50.682;18.510;2023-02-15T07:23:35;59.90;;;28.17;;
20966;SDS011;10642;50.682;18.510;2023-02-15T07:26:01;58.40;;;27.23;;
20966;SDS011;10642;50.682;18.510;2023-02-15T07:28:29;57.93;;;27.43;;
20966;SDS011;10642;50.682;18.510;2023-02-15T07:30:56;61.20;;;28.30;;
20966;SDS011;10642;50.682;18.510;2023-02-15T07:33:24;61.80;;;27.37;;
20966;SDS011;10642;50.682;18.510;2023-02-15T07:35:52;71.97;;;29.13;;
20966;SDS011;10642;50.682;18.510;2023-02-15T07:38:19;53.43;;;24.13;;
20966;SDS011;10642;50.682;18.510;2023-02-15T07:40:46;70.60;;;29.33;;
20966;SDS011;10642;50.682;18.510;2023-02-15T07:43:13;64.80;;;28.60;;
20966;SDS011;10642;50.682;18.510;2023-02-15T07:45:40;66.47;;;29.93;;
20966;SDS011;10642;50.682;18.510;2023-02-15T07:48:07;67.03;;;29.50;;
20966;SDS011;10642;50.682;18.510;2023-02-15T07:50:34;80.67;;;32.80;;
20966;SDS011;10642;50.682;18.510;2023-02-15T07:53:02;68.40;;;29.23;;
20966;SDS011;10642;50.682;18.510;2023-02-15T07:55:29;66.57;;;28.53;;
20966;SDS011;10642;50.682;18.510;2023-02-15T07:57:56;68.77;;;31.33;;
20966;SDS011;10642;50.682;18.510;2023-02-15T08:00:23;59.50;;;23.40;;
20966;SDS011;10642;50.682;18.510;2023-02-15T08:02:52;66.67;;;27.77;;
20966;SDS011;10642;50.682;18.510;2023-02-15T08:05:40;56.30;;;26.03;;
20966;SDS011;10642;50.682;18.510;2023-02-15T08:08:07;62.37;;;28.33;;
20966;SDS011;10642;50.682;18.510;2023-02-15T08:10:37;59.17;;;26.57;;
20966;SDS011;10642;50.682;18.510;2023-02-15T08:13:22;60.17;;;26.93;;
20966;SDS011;10642;50.682;18.510;2023-02-15T08:15:50;55.00;;;26.93;;
20966;SDS011;10642;50.682;18.510;2023-02-15T08:18:17;62.20;;;27.90;;
20966;SDS011;10642;50.682;18.510;2023-02-15T08:20:48;47.67;;;24.43;;
20966;SDS011;10642;50.682;18.510;2023-02-15T08:23:15;58.97;;;27.97;;
20966;SDS011;10642;50.682;18.510;2023-02-15T08:25:42;54.27;;;25.40;;
20966;SDS011;10642;50.682;18.510;2023-02-15T08:28:09;61.07;;;27.20;;
20966;SDS011;10642;50.682;18.510;2023-02-15T08:30:36;56.93;;;27.17;;
20966;SDS011;10642;50.682;18.510;2023-02-15T08:33:03;65.43;;;29.03;;
20966;SDS011;10642;50.682;18.510;2023-02-15T08:35:30;54.73;;;24.13;;
20966;SDS011;10642;50.682;18.510;2023-02-15T08:37:57;55.23;;;23.30;;
20966;SDS011;10642;50.682;18.510;2023-02-15T08:40:23;60.50;;;28.60;;
20966;SDS011;10642;50.682;18.510;2023-02-15T08:42:51;53.67;;;25.23;;
20966;SDS011;10642;50.682;18.510;2023-02-15T08:45:17;60.07;;;27.70;;
20966;SDS011;10642;50.682;18.510;2023-02-15T08:47:44;57.97;;;28.60;;
20966;SDS011;10642;50.682;18.510;2023-02-15T08:50:11;63.80;;;30.13;;
20966;SDS011;10642;50.682;18.510;2023-02-15T08:52:38;59.97;;;27.60;;
20966;SDS011;10642;50.682;18.510;2023-02-15T08:55:05;51.73;;;26.10;;
20966;SDS011;10642;50.682;18.510;2023-02-15T08:57:32;59.33;;;27.23;;
20966;SDS011;10642;50.682;18.510;2023-02-15T08:59:59;74.40;;;34.73;;
20966;SDS011;10642;50.682;18.510;2023-02-15T09:02:26;61.40;;;30.37;;
20966;SDS011;10642;50.682;18.510;2023-02-15T09:04:53;70.03;;;31.37;;
20966;SDS011;10642;50.682;18.510;2023-02-15T09:07:20;61.07;;;26.20;;
20966;SDS011;10642;50.682;18.510;2023-02-15T09:09:47;70.63;;;30.90;;
20966;SDS011;10642;50.682;18.510;2023-02-15T09:12:13;67.03;;;30.67;;
20966;SDS011;10642;50.682;18.510;2023-02-15T09:14:40;58.60;;;28.07;;
20966;SDS011;10642;50.682;18.510;2023-02-15T09:17:07;62.97;;;28.70;;
20966;SDS011;10642;50.682;18.510;2023-02-15T09:19:34;64.00;;;30.50;;
20966;SDS011;10642;50.682;18.510;2023-02-15T09:22:01;67.50;;;30.20;;
20966;SDS011;10642;50.682;18.510;2023-02-15T09:24:28;71.03;;;31.87;;
20966;SDS011;10642;50.682;18.510;2023-02-15T09:26:58;62.97;;;29.70;;
20966;SDS011;10642;50.682;18.510;2023-02-15T09:29:25;67.93;;;29.10;;
20966;SDS011;10642;50.682;18.510;2023-02-15T09:31:51;67.73;;;29.63;;
20966;SDS011;10642;50.682;18.510;2023-02-15T09:34:21;60.40;;;28.63;;
20966;SDS011;10642;50.682;18.510;2023-02-15T09:36:48;62.93;;;28.47;;
20966;SDS011;10642;50.682;18.510;2023-02-15T09:39:16;55.03;;;27.27;;
20966;SDS011;10642;50.682;18.510;2023-02-15T09:46:49;58.00;;;27.40;;
20966;SDS011;10642;50.682;18.510;2023-02-15T10:02:34;51.37;;;23.90;;
20966;SDS011;10642;50.682;18.510;2023-02-15T10:15:53;50.77;;;23.20;;
20966;SDS011;10642;50.682;18.510;2023-02-15T10:26:20;41.87;;;21.73;;
20966;SDS011;10642;50.682;18.510;2023-02-15T10:34:33;43.33;;;20.37;;
20966;SDS011;10642;50.682;18.510;2023-02-15T10:39:22;41.13;;;19.67;;
20966;SDS011;10642;50.682;18.510;2023-02-15T10:49:25;39.33;;;19.43;;
20966;SDS011;10642;50.682;18.510;2023-02-15T10:57:04;43.77;;;20.03;;
20966;SDS011;10642;50.682;18.510;2023-02-15T10:59:54;41.07;;;22.37;;
20966;SDS011;10642;50.682;18.510;2023-02-15T11:02:36;37.27;;;20.07;;
20966;SDS011;10642;50.682;18.510;2023-02-15T11:07:38;42.70;;;21.27;;
20966;SDS011;10642;50.682;18.510;2023-02-15T11:12:51;41.30;;;23.07;;
20966;SDS011;10642;50.682;18.510;2023-02-15T11:15:20;42.03;;;19.83;;
20966;SDS011;10642;50.682;18.510;2023-02-15T11:17:52;45.00;;;20.90;;
20966;SDS011;10642;50.682;18.510;2023-02-15T11:20:30;45.63;;;21.07;;
20966;SDS011;10642;50.682;18.510;2023-02-15T11:22:57;41.17;;;20.20;;
20966;SDS011;10642;50.682;18.510;2023-02-15T11:25:30;43.10;;;21.43;;
20966;SDS011;10642;50.682;18.510;2023-02-15T11:27:57;41.93;;;21.03;;
20966;SDS011;10642;50.682;18.510;2023-02-15T11:30:27;41.40;;;20.17;;
20966;SDS011;10642;50.682;18.510;2023-02-15T11:32:56;44.37;;;22.00;;
20966;SDS011;10642;50.682;18.510;2023-02-15T11:35:47;34.97;;;19.70;;
20966;SDS011;10642;50.682;18.510;2023-02-15T11:38:19;44.17;;;22.23;;
20966;SDS011;10642;50.682;18.510;2023-02-15T11:40:48;37.17;;;20.63;;
20966;SDS011;10642;50.682;18.510;2023-02-15T11:43:21;40.83;;;21.77;;
20966;SDS011;10642;50.682;18.510;2023-02-15T11:45:50;42.93;;;19.83;;
20966;SDS011;10642;50.682;18.510;2023-02-15T11:48:17;26.83;;;14.43;;
20966;SDS011;10642;50.682;18.510;2023-02-15T11:50:44;38.13;;;19.40;;
20966;SDS011;10642;50.682;18.510;2023-02-15T11:53:15;39.40;;;20.60;;
20966;SDS011;10642;50.682;18.510;2023-02-15T11:55:43;40.23;;;19.67;;
20966;SDS011;10642;50.682;18.510;2023-02-15T12:00:43;36.73;;;18.97;;
20966;SDS011;10642;50.682;18.510;2023-02-15T12:03:16;45.17;;;21.40;;
20966;SDS011;10642;50.682;18.510;2023-02-15T12:05:45;37.37;;;19.73;;
20966;SDS011;10642;50.682;18.510;2023-02-15T12:11:03;35.70;;;19.07;;
20966;SDS011;10642;50.682;18.510;2023-02-15T12:13:27;32.70;;;16.53;;
20966;SDS011;10642;50.682;18.510;2023-02-15T12:15:54;34.53;;;17.63;;
20966;SDS011;10642;50.682;18.510;2023-02-15T12:18:33;40.00;;;18.43;;
20966;SDS011;10642;50.682;18.510;2023-02-15T12:21:08;32.30;;;17.00;;
20966;SDS011;10642;50.682;18.510;2023-02-15T12:23:40;29.33;;;13.33;;
20966;SDS011;10642;50.682;18.510;2023-02-15T12:26:08;31.73;;;16.27;;
20966;SDS011;10642;50.682;18.510;2023-02-15T12:28:41;39.37;;;18.67;;
20966;SDS011;10642;50.682;18.510;2023-02-15T12:31:21;32.17;;;15.87;;
20966;SDS011;10642;50.682;18.510;2023-02-15T12:33:50;35.00;;;17.27;;
20966;SDS011;10642;50.682;18.510;2023-02-15T12:36:20;34.40;;;17.13;;
20966;SDS011;10642;50.682;18.510;2023-02-15T12:41:32;34.23;;;14.07;;
20966;SDS011;10642;50.682;18.510;2023-02-15T12:46:39;34.63;;;16.27;;
20966;SDS011;10642;50.682;18.510;2023-02-15T12:54:31;31.30;;;14.03;;
20966;SDS011;10642;50.682;18.510;2023-02-15T12:57:34;24.03;;;11.20;;
20966;SDS011;10642;50.682;18.510;2023-02-15T13:02:57;26.13;;;12.97;;
20966;SDS011;10642;50.682;18.510;2023-02-15T13:07:56;23.30;;;11.30;;
20966;SDS011;10642;50.682;18.510;2023-02-15T13:12:51;24.40;;;12.50;;
20966;SDS011;10642;50.682;18.510;2023-02-15T13:15:34;21.63;;;10.73;;
20966;SDS011;10642;50.682;18.510;2023-02-15T13:18:03;25.03;;;11.20;;
20966;SDS011;10642;50.682;18.510;2023-02-15T13:20:30;22.37;;;13.00;;
20966;SDS011;10642;50.682;18.510;2023-02-15T13:23:00;25.43;;;14.23;;
20966;SDS011;10642;50.682;18.510;2023-02-15T13:25:29;22.53;;;12.10;;
20966;SDS011;10642;50.682;18.510;2023-02-15T13:27:59;23.80;;;12.20;;
20966;SDS011;10642;50.682;18.510;2023-02-15T13:30:31;22.37;;;13.33;;
20966;SDS011;10642;50.682;18.510;2023-02-15T13:33:05;25.23;;;12.53;;
20966;SDS011;10642;50.682;18.510;2023-02-15T13:35:47;23.00;;;11.90;;
20966;SDS011;10642;50.682;18.510;2023-02-15T13:41:04;23.23;;;11.90;;
20966;SDS011;10642;50.682;18.510;2023-02-15T13:56:39;21.67;;;10.40;;
20966;SDS011;10642;50.682;18.510;2023-02-15T14:01:56;21.30;;;12.67;;
20966;SDS011;10642;50.682;18.510;2023-02-15T14:12:14;22.30;;;11.53;;
20966;SDS011;10642;50.682;18.510;2023-02-15T14:27:26;19.77;;;10.93;;
20966;SDS011;10642;50.682;18.510;2023-02-15T14:29:56;21.13;;;11.30;;
20966;SDS011;10642;50.682;18.510;2023-02-15T14:34:55;21.60;;;11.23;;
20966;SDS011;10642;50.682;18.510;2023-02-15T14:37:46;21.97;;;12.23;;
20966;SDS011;10642;50.682;18.510;2023-02-15T14:45:53;18.43;;;10.17;;
20966;SDS011;10642;50.682;18.510;2023-02-15T14:48:41;19.03;;;10.50;;
20966;SDS011;10642;50.682;18.510;2023-02-15T14:51:10;19.13;;;9.37;;
20966;SDS011;10642;50.682;18.510;2023-02-15T14:53:37;20.70;;;10.30;;
20966;SDS011;10642;50.682;18.510;2023-02-15T14:56:18;17.00;;;8.90;;
20966;SDS011;10642;50.682;18.510;2023-02-15T15:01:16;20.10;;;9.33;;
20966;SDS011;10642;50.682;18.510;2023-02-15T15:03:51;38.97;;;20.53;;
20966;SDS011;10642;50.682;18.510;2023-02-15T15:06:24;17.37;;;9.63;;
20966;SDS011;10642;50.682;18.510;2023-02-15T15:08:52;20.33;;;9.93;;
20966;SDS011;10642;50.682;18.510;2023-02-15T15:14:08;19.27;;;9.90;;
20966;SDS011;10642;50.682;18.510;2023-02-15T15:19:04;20.00;;;10.20;;
20966;SDS011;10642;50.682;18.510;2023-02-15T15:29:51;19.07;;;9.73;;
20966;SDS011;10642;50.682;18.510;2023-02-15T15:32:19;19.77;;;10.90;;
20966;SDS011;10642;50.682;18.510;2023-02-15T15:45:27;15.93;;;9.67;;
20966;SDS011;10642;50.682;18.510;2023-02-15T15:50:33;21.20;;;11.60;;
20966;SDS011;10642;50.682;18.510;2023-02-15T15:53:01;16.50;;;9.27;;
20966;SDS011;10642;50.682;18.510;2023-02-15T15:55:29;19.10;;;10.40;;
20966;SDS011;10642;50.682;18.510;2023-02-15T15:57:58;17.97;;;8.73;;
20966;SDS011;10642;50.682;18.510;2023-02-15T16:02:53;16.43;;;8.73;;
20966;SDS011;10642;50.682;18.510;2023-02-15T16:05:22;16.50;;;8.40;;
20966;SDS011;10642;50.682;18.510;2023-02-15T16:07:49;18.23;;;8.23;;
20966;SDS011;10642;50.682;18.510;2023-02-15T16:10:24;16.57;;;9.53;;
20966;SDS011;10642;50.682;18.510;2023-02-15T16:12:51;32.83;;;15.30;;
20966;SDS011;10642;50.682;18.510;2023-02-15T16:15:23;15.10;;;8.80;;
20966;SDS011;10642;50.682;18.510;2023-02-15T16:17:52;17.47;;;9.93;;
20966;SDS011;10642;50.682;18.510;2023-02-15T16:20:32;16.70;;;9.23;;
20966;SDS011;10642;50.682;18.510;2023-02-15T16:28:12;20.50;;;10.67;;
20966;SDS011;10642;50.682;18.510;2023-02-15T16:30:40;21.33;;;11.37;;
20966;SDS011;10642;50.682;18.510;2023-02-15T16:33:10;20.50;;;10.57;;
20966;SDS011;10642;50.682;18.510;2023-02-15T16:35:52;18.57;;;10.83;;
20966;SDS011;10642;50.682;18.510;2023-02-15T16:38:23;21.53;;;11.43;;
20966;SDS011;10642;50.682;18.510;2023-02-15T16:40:54;20.33;;;10.30;;
20966;SDS011;10642;50.682;18.510;2023-02-15T16:43:25;23.47;;;12.00;;
20966;SDS011;10642;50.682;18.510;2023-02-15T16:45:53;21.10;;;11.93;;
20966;SDS011;10642;50.682;18.510;2023-02-15T16:48:25;17.77;;;10.27;;
20966;SDS011;10642;50.682;18.510;2023-02-15T16:50:53;25.47;;;11.67;;
20966;SDS011;10642;50.682;18.510;2023-02-15T16:53:22;19.67;;;10.50;;
20966;SDS011;10642;50.682;18.510;2023-02-15T16:55:51;21.80;;;11.33;;
20966;SDS011;10642;50.682;18.510;2023-02-15T16:58:20;19.13;;;10.20;;
20966;SDS011;10642;50.682;18.510;2023-02-15T17:00:49;18.27;;;10.33;;
20966;SDS011;10642;50.682;18.510;2023-02-15T17:08:15;20.87;;;10.80;;
20966;SDS011;10642;50.682;18.510;2023-02-15T17:11:00;21.47;;;11.33;;
20966;SDS011;10642;50.682;18.510;2023-02-15T17:13:28;23.10;;;12.13;;
20966;SDS011;10642;50.682;18.510;2023-02-15T17:20:54;23.23;;;12.53;;
20966;SDS011;10642;50.682;18.510;2023-02-15T17:25:57;23.00;;;13.10;;
20966;SDS011;10642;50.682;18.510;2023-02-15T17:28:26;25.53;;;14.67;;
20966;SDS011;10642;50.682;18.510;2023-02-15T17:30:54;25.17;;;13.57;;
20966;SDS011;10642;50.682;18.510;2023-02-15T17:36:03;26.13;;;13.83;;
20966;SDS011;10642;50.682;18.510;2023-02-15T17:38:31;28.73;;;14.17;;
20966;SDS011;10642;50.682;18.510;2023-02-15T17:40:58;27.03;;;13.87;;
20966;SDS011;10642;50.682;18.510;2023-02-15T17:43:26;26.43;;;14.50;;
20966;SDS011;10642;50.682;18.510;2023-02-15T17:45:53;30.53;;;15.47;;
20966;SDS011;10642;50.682;18.510;2023-02-15T17:48:21;33.37;;;15.03;;
20966;SDS011;10642;50.682;18.510;2023-02-15T17:50:48;35.13;;;16.73;;
20966;SDS011;10642;50.682;18.510;2023-02-15T17:53:16;28.93;;;14.77;;